sensor_id;sensor_type;location;lat;lon;timestamp;temperature;humidity
19654;DHT22;9975;48.046;7.804;2022-10-31T01:57:30;9.30;99.90
19654;DHT22;9975;48.046;7.804;2022-10-31T02:00:00;9.30;99.90
19654;DHT22;9975;48.046;7.804;2022-10-31T02:02:27;9.40;99.90
19654;DHT22;9975;48.046;7.804;2022-10-31T02:04:55;9.40;99.90
19654;DHT22;9975;48.046;7.804;2022-10-31T02:07:26;9.30;99.90
19654;DHT22;9975;48.046;7.804;2022-10-31T02:09:53;9.30;99.90
19654;DHT22;9975;48.046;7.804;2022-10-31T02:12:20;9.30;99.90
19654;DHT22;9975;48.046;7.804;2022-10-31T02:14:46;9.30;99.90
19654;DHT22;9975;48.046;7.804;2022-10-31T02:17:13;9.40;99.90
19654;DHT22;9975;48.046;7.804;2022-10-31T02:22:19;9.40;99.90
19654;DHT22;9975;48.046;7.804;2022-10-31T02:30:20;9.30;99.90
19654;DHT22;9975;48.046;7.804;2022-10-31T02:33:30;9.30;99.90
19654;DHT22;9975;48.046;7.804;2022-10-31T02:36:04;9.30;99.90
19654;DHT22;9975;48.046;7.804;2022-10-31T02:41:34;9.30;99.90
19654;DHT22;9975;48.046;7.804;2022-10-31T02:44:08;9.30;99.90
19654;DHT22;9975;48.046;7.804;2022-10-31T02:46:49;9.30;99.90
19654;DHT22;9975;48.046;7.804;2022-10-31T02:49:45;9.30;99.90
19654;DHT22;9975;48.046;7.804;2022-10-31T02:52:34;9.30;99.90
19654;DHT22;9975;48.046;7.804;2022-10-31T02:58:02;9.30;99.90
19654;DHT22;9975;48.046;7.804;2022-10-31T03:04:00;9.20;99.90
19654;DHT22;9975;48.046;7.804;2022-10-31T03:06:44;9.30;99.90
19654;DHT22;9975;48.046;7.804;2022-10-31T03:12:14;9.30;99.90
19654;DHT22;9975;48.046;7.804;2022-10-31T03:14:48;9.30;99.90
19654;DHT22;9975;48.046;7.804;2022-10-31T03:17:36;9.20;99.90
19654;DHT22;9975;48.046;7.804;2022-10-31T03:20:04;9.30;99.90
19654;DHT22;9975;48.046;7.804;2022-10-31T03:22:32;9.20;99.90
19654;DHT22;9975;48.046;7.804;2022-10-31T03:25:01;9.20;99.90
19654;DHT22;9975;48.046;7.804;2022-10-31T03:27:30;9.30;99.90
19654;DHT22;9975;48.046;7.804;2022-10-31T03:30:00;9.20;99.90
19654;DHT22;9975;48.046;7.804;2022-10-31T03:32:40;9.20;99.90
19654;DHT22;9975;48.046;7.804;2022-10-31T03:35:08;9.20;99.90
19654;DHT22;9975;48.046;7.804;2022-10-31T03:37:36;9.20;99.90
19654;DHT22;9975;48.046;7.804;2022-10-31T03:40:03;9.20;99.90
19654;DHT22;9975;48.046;7.804;2022-10-31T03:42:32;9.10;99.90
19654;DHT22;9975;48.046;7.804;2022-10-31T03:47:35;9.00;99.90
19654;DHT22;9975;48.046;7.804;2022-10-31T03:50:02;9.00;99.90
19654;DHT22;9975;48.046;7.804;2022-10-31T03:52:43;9.00;99.90
19654;DHT22;9975;48.046;7.804;2022-10-31T03:55:24;9.00;99.90
19654;DHT22;9975;48.046;7.804;2022-10-31T03:58:03;9.00;99.90
19654;DHT22;9975;48.046;7.804;2022-10-31T04:00:31;9.00;99.90
19654;DHT22;9975;48.046;7.804;2022-10-31T04:03:03;9.00;99.90
19654;DHT22;9975;48.046;7.804;2022-10-31T04:05:31;9.00;99.90
19654;DHT22;9975;48.046;7.804;2022-10-31T04:07:58;9.00;99.90
19654;DHT22;9975;48.046;7.804;2022-10-31T04:10:26;9.00;99.90
19654;DHT22;9975;48.046;7.804;2022-10-31T04:12:58;9.00;99.90
19654;DHT22;9975;48.046;7.804;2022-10-31T04:15:26;9.00;99.90
19654;DHT22;9975;48.046;7.804;2022-10-31T04:17:54;9.00;99.90
19654;DHT22;9975;48.046;7.804;2022-10-31T04:20:30;9.00;99.90
19654;DHT22;9975;48.046;7.804;2022-10-31T04:22:56;8.90;99.90
19654;DHT22;9975;48.046;7.804;2022-10-31T04:25:21;8.90;99.90
19654;DHT22;9975;48.046;7.804;2022-10-31T04:27:47;8.90;99.90
19654;DHT22;9975;48.046;7.804;2022-10-31T04:30:13;8.90;99.90
19654;DHT22;9975;48.046;7.804;2022-10-31T04:32:38;8.90;99.90
19654;DHT22;9975;48.046;7.804;2022-10-31T04:35:04;8.90;99.90
19654;DHT22;9975;48.046;7.804;2022-10-31T04:37:30;8.90;99.90
19654;DHT22;9975;48.046;7.804;2022-10-31T04:39:56;9.00;99.90
19654;DHT22;9975;48.046;7.804;2022-10-31T04:42:21;8.90;99.90
19654;DHT22;9975;48.046;7.804;2022-10-31T04:44:47;9.00;99.90
19654;DHT22;9975;48.046;7.804;2022-10-31T04:47:12;9.00;99.90
19654;DHT22;9975;48.046;7.804;2022-10-31T04:49:38;9.00;99.90
19654;DHT22;9975;48.046;7.804;2022-10-31T04:52:04;9.00;99.90
19654;DHT22;9975;48.046;7.804;2022-10-31T04:54:29;9.00;99.90
19654;DHT22;9975;48.046;7.804;2022-10-31T04:56:55;8.90;99.90
19654;DHT22;9975;48.046;7.804;2022-10-31T04:59:20;8.90;99.90
19654;DHT22;9975;48.046;7.804;2022-10-31T05:01:46;8.80;99.90
19654;DHT22;9975;48.046;7.804;2022-10-31T05:04:12;8.90;99.90
19654;DHT22;9975;48.046;7.804;2022-10-31T05:06:37;8.80;99.90
19654;DHT22;9975;48.046;7.804;2022-10-31T05:09:03;8.80;99.90
19654;DHT22;9975;48.046;7.804;2022-10-31T05:11:28;8.80;99.90
19654;DHT22;9975;48.046;7.804;2022-10-31T05:13:54;8.80;99.90
19654;DHT22;9975;48.046;7.804;2022-10-31T05:16:20;8.70;99.90
19654;DHT22;9975;48.046;7.804;2022-10-31T05:18:45;8.70;99.90
19654;DHT22;9975;48.046;7.804;2022-10-31T05:21:11;8.70;99.90
19654;DHT22;9975;48.046;7.804;2022-10-31T05:23:36;8.70;99.90
19654;DHT22;9975;48.046;7.804;2022-10-31T05:26:02;8.70;99.90
19654;DHT22;9975;48.046;7.804;2022-10-31T05:28:28;8.70;99.90
19654;DHT22;9975;48.046;7.804;2022-10-31T05:30:53;8.80;99.90
19654;DHT22;9975;48.046;7.804;2022-10-31T05:33:19;8.70;99.90
19654;DHT22;9975;48.046;7.804;2022-10-31T05:35:44;8.70;99.90
19654;DHT22;9975;48.046;7.804;2022-10-31T05:38:10;8.70;99.90
19654;DHT22;9975;48.046;7.804;2022-10-31T05:40:36;8.70;99.90
19654;DHT22;9975;48.046;7.804;2022-10-31T05:43:01;8.70;99.90
19654;DHT22;9975;48.046;7.804;2022-10-31T05:45:27;8.70;99.90
19654;DHT22;9975;48.046;7.804;2022-10-31T05:47:59;8.70;99.90
19654;DHT22;9975;48.046;7.804;2022-10-31T05:50:27;8.70;99.90
19654;DHT22;9975;48.046;7.804;2022-10-31T05:52:58;8.70;99.90
19654;DHT22;9975;48.046;7.804;2022-10-31T05:55:24;8.70;99.90
19654;DHT22;9975;48.046;7.804;2022-10-31T05:57:52;8.60;99.90
19654;DHT22;9975;48.046;7.804;2022-10-31T06:00:18;8.60;99.90
19654;DHT22;9975;48.046;7.804;2022-10-31T06:02:44;8.70;99.90
19654;DHT22;9975;48.046;7.804;2022-10-31T06:05:10;8.70;99.90
19654;DHT22;9975;48.046;7.804;2022-10-31T06:07:36;8.70;99.90
19654;DHT22;9975;48.046;7.804;2022-10-31T06:10:03;8.70;99.90
19654;DHT22;9975;48.046;7.804;2022-10-31T06:12:29;8.70;99.90
19654;DHT22;9975;48.046;7.804;2022-10-31T06:14:55;8.70;99.90
19654;DHT22;9975;48.046;7.804;2022-10-31T06:17:21;8.80;99.90
19654;DHT22;9975;48.046;7.804;2022-10-31T06:19:46;8.80;99.90
19654;DHT22;9975;48.046;7.804;2022-10-31T06:22:12;8.80;99.90
19654;DHT22;9975;48.046;7.804;2022-10-31T06:24:38;8.80;99.90
19654;DHT22;9975;48.046;7.804;2022-10-31T06:27:04;8.80;99.90
19654;DHT22;9975;48.046;7.804;2022-10-31T06:29:30;8.70;99.90
19654;DHT22;9975;48.046;7.804;2022-10-31T06:31:55;8.70;99.90
19654;DHT22;9975;48.046;7.804;2022-10-31T06:34:21;8.70;99.90
19654;DHT22;9975;48.046;7.804;2022-10-31T06:36:47;8.70;99.90
19654;DHT22;9975;48.046;7.804;2022-10-31T06:39:13;8.70;99.90
19654;DHT22;9975;48.046;7.804;2022-10-31T06:41:39;8.80;99.90
19654;DHT22;9975;48.046;7.804;2022-10-31T06:44:07;8.80;99.90
19654;DHT22;9975;48.046;7.804;2022-10-31T06:46:33;8.90;99.90
19654;DHT22;9975;48.046;7.804;2022-10-31T06:48:59;8.90;99.90
19654;DHT22;9975;48.046;7.804;2022-10-31T06:51:25;8.90;99.90
19654;DHT22;9975;48.046;7.804;2022-10-31T06:53:51;8.90;99.90
19654;DHT22;9975;48.046;7.804;2022-10-31T06:56:16;9.00;99.90
19654;DHT22;9975;48.046;7.804;2022-10-31T06:58:42;9.10;99.90
19654;DHT22;9975;48.046;7.804;2022-10-31T07:01:07;9.20;99.90
19654;DHT22;9975;48.046;7.804;2022-10-31T07:03:33;9.20;99.90
19654;DHT22;9975;48.046;7.804;2022-10-31T07:05:59;9.20;99.90
19654;DHT22;9975;48.046;7.804;2022-10-31T07:08:25;9.20;99.90
19654;DHT22;9975;48.046;7.804;2022-10-31T07:10:53;9.30;99.90
19654;DHT22;9975;48.046;7.804;2022-10-31T07:13:19;9.30;99.90
19654;DHT22;9975;48.046;7.804;2022-10-31T07:15:51;9.40;99.90
19654;DHT22;9975;48.046;7.804;2022-10-31T07:18:17;9.50;99.90
19654;DHT22;9975;48.046;7.804;2022-10-31T07:20:42;9.50;99.90
19654;DHT22;9975;48.046;7.804;2022-10-31T07:23:12;9.60;99.90
19654;DHT22;9975;48.046;7.804;2022-10-31T07:25:38;9.90;99.90
19654;DHT22;9975;48.046;7.804;2022-10-31T07:28:04;11.70;99.90
19654;DHT22;9975;48.046;7.804;2022-10-31T07:30:30;9.90;99.90
19654;DHT22;9975;48.046;7.804;2022-10-31T07:32:56;10.10;99.90
19654;DHT22;9975;48.046;7.804;2022-10-31T07:35:26;10.10;99.90
19654;DHT22;9975;48.046;7.804;2022-10-31T07:37:52;10.20;99.90
19654;DHT22;9975;48.046;7.804;2022-10-31T07:40:18;10.30;99.90
19654;DHT22;9975;48.046;7.804;2022-10-31T07:42:50;10.50;99.90
19654;DHT22;9975;48.046;7.804;2022-10-31T07:45:20;10.60;99.90
19654;DHT22;9975;48.046;7.804;2022-10-31T07:47:53;10.60;99.90
19654;DHT22;9975;48.046;7.804;2022-10-31T07:50:21;10.70;99.90
19654;DHT22;9975;48.046;7.804;2022-10-31T07:52:47;10.80;99.90
19654;DHT22;9975;48.046;7.804;2022-10-31T07:55:14;11.00;99.90
19654;DHT22;9975;48.046;7.804;2022-10-31T07:57:39;11.20;99.90
19654;DHT22;9975;48.046;7.804;2022-10-31T08:00:08;11.20;99.90
19654;DHT22;9975;48.046;7.804;2022-10-31T08:02:34;11.30;99.90
19654;DHT22;9975;48.046;7.804;2022-10-31T08:05:00;11.40;99.90
19654;DHT22;9975;48.046;7.804;2022-10-31T08:07:27;11.60;99.90
19654;DHT22;9975;48.046;7.804;2022-10-31T08:09:55;11.70;99.90
19654;DHT22;9975;48.046;7.804;2022-10-31T08:12:21;11.90;99.90
19654;DHT22;9975;48.046;7.804;2022-10-31T08:14:47;11.90;99.90
19654;DHT22;9975;48.046;7.804;2022-10-31T08:17:13;12.00;99.90
19654;DHT22;9975;48.046;7.804;2022-10-31T08:19:38;12.20;99.90
19654;DHT22;9975;48.046;7.804;2022-10-31T08:22:04;12.20;99.90
19654;DHT22;9975;48.046;7.804;2022-10-31T08:24:30;12.30;99.90
19654;DHT22;9975;48.046;7.804;2022-10-31T08:26:55;12.30;99.90
19654;DHT22;9975;48.046;7.804;2022-10-31T08:29:21;12.40;99.90
19654;DHT22;9975;48.046;7.804;2022-10-31T08:31:46;12.50;99.90
19654;DHT22;9975;48.046;7.804;2022-10-31T08:34:12;12.50;99.90
19654;DHT22;9975;48.046;7.804;2022-10-31T08:36:38;12.60;99.90
19654;DHT22;9975;48.046;7.804;2022-10-31T08:39:03;12.60;99.90
19654;DHT22;9975;48.046;7.804;2022-10-31T08:41:29;12.60;99.90
19654;DHT22;9975;48.046;7.804;2022-10-31T08:43:55;12.70;99.90
19654;DHT22;9975;48.046;7.804;2022-10-31T08:46:21;12.80;99.90
19654;DHT22;9975;48.046;7.804;2022-10-31T08:48:50;12.80;99.90
19654;DHT22;9975;48.046;7.804;2022-10-31T08:51:15;12.90;99.90
19654;DHT22;9975;48.046;7.804;2022-10-31T08:53:41;12.90;99.90
19654;DHT22;9975;48.046;7.804;2022-10-31T08:56:07;13.00;99.90
19654;DHT22;9975;48.046;7.804;2022-10-31T08:58:32;13.00;99.90
19654;DHT22;9975;48.046;7.804;2022-10-31T09:00:59;13.10;99.90
19654;DHT22;9975;48.046;7.804;2022-10-31T09:03:27;13.20;99.90
19654;DHT22;9975;48.046;7.804;2022-10-31T09:05:59;13.30;99.90
19654;DHT22;9975;48.046;7.804;2022-10-31T09:08:25;13.30;99.90
19654;DHT22;9975;48.046;7.804;2022-10-31T09:10:51;13.50;99.90
19654;DHT22;9975;48.046;7.804;2022-10-31T09:13:19;13.50;99.90
19654;DHT22;9975;48.046;7.804;2022-10-31T09:15:46;13.60;99.90
19654;DHT22;9975;48.046;7.804;2022-10-31T09:18:14;13.70;99.90
19654;DHT22;9975;48.046;7.804;2022-10-31T09:20:41;13.70;99.90
19654;DHT22;9975;48.046;7.804;2022-10-31T09:23:17;13.80;99.90
19654;DHT22;9975;48.046;7.804;2022-10-31T09:25:44;13.90;99.90
19654;DHT22;9975;48.046;7.804;2022-10-31T09:28:12;13.90;99.90
19654;DHT22;9975;48.046;7.804;2022-10-31T09:30:38;14.00;99.90
19654;DHT22;9975;48.046;7.804;2022-10-31T09:33:06;14.10;99.90
19654;DHT22;9975;48.046;7.804;2022-10-31T09:35:32;14.10;99.90
19654;DHT22;9975;48.046;7.804;2022-10-31T09:38:00;14.10;99.90
19654;DHT22;9975;48.046;7.804;2022-10-31T09:40:40;14.10;99.90
19654;DHT22;9975;48.046;7.804;2022-10-31T09:46:34;14.30;99.90
19654;DHT22;9975;48.046;7.804;2022-10-31T09:49:24;14.30;99.90
19654;DHT22;9975;48.046;7.804;2022-10-31T09:52:27;14.30;99.90
19654;DHT22;9975;48.046;7.804;2022-10-31T09:55:04;14.40;99.90
19654;DHT22;9975;48.046;7.804;2022-10-31T09:57:36;14.50;99.90
19654;DHT22;9975;48.046;7.804;2022-10-31T10:00:07;14.50;99.90
19654;DHT22;9975;48.046;7.804;2022-10-31T10:02:39;14.50;99.90
19654;DHT22;9975;48.046;7.804;2022-10-31T10:05:12;14.60;99.90
19654;DHT22;9975;48.046;7.804;2022-10-31T10:08:08;14.70;99.90
19654;DHT22;9975;48.046;7.804;2022-10-31T10:10:41;14.80;99.90
19654;DHT22;9975;48.046;7.804;2022-10-31T10:26:38;15.30;99.90
19654;DHT22;9975;48.046;7.804;2022-10-31T10:31:49;15.50;99.90
19654;DHT22;9975;48.046;7.804;2022-10-31T10:34:19;15.50;99.90
19654;DHT22;9975;48.046;7.804;2022-10-31T10:37:00;15.50;99.90
19654;DHT22;9975;48.046;7.804;2022-10-31T10:39:40;15.50;99.90
19654;DHT22;9975;48.046;7.804;2022-10-31T10:42:13;15.60;99.90
19654;DHT22;9975;48.046;7.804;2022-10-31T10:44:57;15.50;99.90
19654;DHT22;9975;48.046;7.804;2022-10-31T10:47:43;15.50;99.90
19654;DHT22;9975;48.046;7.804;2022-10-31T10:50:18;15.50;99.90
19654;DHT22;9975;48.046;7.804;2022-10-31T10:58:09;15.50;99.90
19654;DHT22;9975;48.046;7.804;2022-10-31T11:00:41;15.60;99.90
19654;DHT22;9975;48.046;7.804;2022-10-31T11:03:08;15.50;99.90
19654;DHT22;9975;48.046;7.804;2022-10-31T11:05:44;15.60;99.90
19654;DHT22;9975;48.046;7.804;2022-10-31T11:08:26;15.60;99.90
19654;DHT22;9975;48.046;7.804;2022-10-31T11:13:30;15.80;99.90
19654;DHT22;9975;48.046;7.804;2022-10-31T11:16:03;15.90;99.90
19654;DHT22;9975;48.046;7.804;2022-10-31T11:18:37;16.10;99.90
19654;DHT22;9975;48.046;7.804;2022-10-31T11:21:04;16.10;99.90
19654;DHT22;9975;48.046;7.804;2022-10-31T11:23:31;16.30;99.90
19654;DHT22;9975;48.046;7.804;2022-10-31T11:26:05;16.40;99.90
19654;DHT22;9975;48.046;7.804;2022-10-31T11:28:33;16.50;99.90
19654;DHT22;9975;48.046;7.804;2022-10-31T11:31:10;16.70;99.90
19654;DHT22;9975;48.046;7.804;2022-10-31T11:36:20;16.80;99.90
19654;DHT22;9975;48.046;7.804;2022-10-31T11:38:48;17.00;99.90
19654;DHT22;9975;48.046;7.804;2022-10-31T11:41:17;17.50;99.90
19654;DHT22;9975;48.046;7.804;2022-10-31T11:46:40;18.30;99.90
19654;DHT22;9975;48.046;7.804;2022-10-31T11:49:21;18.30;99.90
19654;DHT22;9975;48.046;7.804;2022-10-31T11:51:52;18.30;99.90
19654;DHT22;9975;48.046;7.804;2022-10-31T11:54:25;18.50;99.90
19654;DHT22;9975;48.046;7.804;2022-10-31T11:56:52;18.60;99.90
19654;DHT22;9975;48.046;7.804;2022-10-31T12:01:51;19.10;99.90
19654;DHT22;9975;48.046;7.804;2022-10-31T12:04:17;19.50;99.90
19654;DHT22;9975;48.046;7.804;2022-10-31T12:06:44;19.80;99.90
19654;DHT22;9975;48.046;7.804;2022-10-31T12:09:23;20.20;99.90
19654;DHT22;9975;48.046;7.804;2022-10-31T12:17:27;20.90;97.80
19654;DHT22;9975;48.046;7.804;2022-10-31T12:22:57;21.50;97.50
19654;DHT22;9975;48.046;7.804;2022-10-31T12:36:54;21.40;93.70
19654;DHT22;9975;48.046;7.804;2022-10-31T12:42:06;21.60;93.30
19654;DHT22;9975;48.046;7.804;2022-10-31T12:44:55;22.00;93.70
19654;DHT22;9975;48.046;7.804;2022-10-31T12:54:03;23.20;91.90
19654;DHT22;9975;48.046;7.804;2022-10-31T12:58:57;23.20;90.80
19654;DHT22;9975;48.046;7.804;2022-10-31T13:01:31;23.10;87.90
19654;DHT22;9975;48.046;7.804;2022-10-31T13:06:49;23.20;86.90
19654;DHT22;9975;48.046;7.804;2022-10-31T13:09:21;23.00;87.30
19654;DHT22;9975;48.046;7.804;2022-10-31T13:11:56;23.00;88.30
19654;DHT22;9975;48.046;7.804;2022-10-31T13:14:28;22.10;90.20
19654;DHT22;9975;48.046;7.804;2022-10-31T13:16:56;22.00;90.70
19654;DHT22;9975;48.046;7.804;2022-10-31T13:19:41;22.00;91.00
19654;DHT22;9975;48.046;7.804;2022-10-31T13:22:21;23.00;92.20
19654;DHT22;9975;48.046;7.804;2022-10-31T13:30:28;21.20;93.20
19654;DHT22;9975;48.046;7.804;2022-10-31T13:35:52;21.10;93.50
19654;DHT22;9975;48.046;7.804;2022-10-31T13:41:06;21.00;94.30
19654;DHT22;9975;48.046;7.804;2022-10-31T13:46:41;21.20;93.00
19654;DHT22;9975;48.046;7.804;2022-10-31T13:52:25;21.30;92.40
19654;DHT22;9975;48.046;7.804;2022-10-31T13:54:52;21.00;92.00
19654;DHT22;9975;48.046;7.804;2022-10-31T13:57:43;21.00;92.40
19654;DHT22;9975;48.046;7.804;2022-10-31T14:02:52;20.80;92.90
19654;DHT22;9975;48.046;7.804;2022-10-31T14:05:34;20.60;93.50
19654;DHT22;9975;48.046;7.804;2022-10-31T14:08:03;20.60;93.90
19654;DHT22;9975;48.046;7.804;2022-10-31T14:10:31;20.60;94.00
19654;DHT22;9975;48.046;7.804;2022-10-31T14:13:35;20.50;94.50
19654;DHT22;9975;48.046;7.804;2022-10-31T14:16:30;20.30;94.70
19654;DHT22;9975;48.046;7.804;2022-10-31T14:19:27;20.20;95.10
19654;DHT22;9975;48.046;7.804;2022-10-31T14:21:53;20.20;95.30
19654;DHT22;9975;48.046;7.804;2022-10-31T14:27:43;20.70;94.80
19654;DHT22;9975;48.046;7.804;2022-10-31T14:29:50;20.70;95.20
19654;DHT22;9975;48.046;7.804;2022-10-31T14:32:22;20.70;93.80
19654;DHT22;9975;48.046;7.804;2022-10-31T14:34:57;20.50;94.10
19654;DHT22;9975;48.046;7.804;2022-10-31T14:46:18;20.50;94.40
19654;DHT22;9975;48.046;7.804;2022-10-31T14:49:03;20.40;94.40
19654;DHT22;9975;48.046;7.804;2022-10-31T14:51:43;20.40;94.40
19654;DHT22;9975;48.046;7.804;2022-10-31T14:54:44;20.40;94.60
19654;DHT22;9975;48.046;7.804;2022-10-31T14:57:27;20.30;95.20
19654;DHT22;9975;48.046;7.804;2022-10-31T15:00:00;20.50;95.30
19654;DHT22;9975;48.046;7.804;2022-10-31T15:02:34;20.00;95.80
19654;DHT22;9975;48.046;7.804;2022-10-31T15:05:07;20.00;96.10
19654;DHT22;9975;48.046;7.804;2022-10-31T15:07:34;20.10;96.10
19654;DHT22;9975;48.046;7.804;2022-10-31T15:10:32;20.00;96.20
19654;DHT22;9975;48.046;7.804;2022-10-31T15:13:10;19.60;97.00
19654;DHT22;9975;48.046;7.804;2022-10-31T15:15:40;19.60;97.60
19654;DHT22;9975;48.046;7.804;2022-10-31T15:18:06;19.40;97.80
19654;DHT22;9975;48.046;7.804;2022-10-31T15:20:38;19.50;98.00
19654;DHT22;9975;48.046;7.804;2022-10-31T15:23:14;19.50;98.20
19654;DHT22;9975;48.046;7.804;2022-10-31T15:25:41;19.50;98.00
19654;DHT22;9975;48.046;7.804;2022-10-31T15:28:22;19.50;97.40
19654;DHT22;9975;48.046;7.804;2022-10-31T15:30:56;19.50;97.20
19654;DHT22;9975;48.046;7.804;2022-10-31T15:33:27;19.30;97.40
19654;DHT22;9975;48.046;7.804;2022-10-31T15:36:01;19.10;97.70
19654;DHT22;9975;48.046;7.804;2022-10-31T15:38:28;18.90;98.40
19654;DHT22;9975;48.046;7.804;2022-10-31T15:41:05;18.80;98.50
19654;DHT22;9975;48.046;7.804;2022-10-31T15:43:38;18.80;98.60
19654;DHT22;9975;48.046;7.804;2022-10-31T15:46:07;18.50;99.10
19654;DHT22;9975;48.046;7.804;2022-10-31T15:48:34;18.60;99.50
19654;DHT22;9975;48.046;7.804;2022-10-31T15:51:01;18.50;99.60
19654;DHT22;9975;48.046;7.804;2022-10-31T15:56:02;18.40;99.90
19654;DHT22;9975;48.046;7.804;2022-10-31T15:58:42;18.40;99.90
19654;DHT22;9975;48.046;7.804;2022-10-31T16:06:33;18.30;99.90
19654;DHT22;9975;48.046;7.804;2022-10-31T16:08:59;18.40;99.90
19654;DHT22;9975;48.046;7.804;2022-10-31T16:11:34;18.20;99.90
19654;DHT22;9975;48.046;7.804;2022-10-31T16:14:15;18.20;99.90
19654;DHT22;9975;48.046;7.804;2022-10-31T16:16:50;18.10;99.90
19654;DHT22;9975;48.046;7.804;2022-10-31T16:19:23;17.90;99.90
19654;DHT22;9975;48.046;7.804;2022-10-31T16:21:53;17.90;99.90
19654;DHT22;9975;48.046;7.804;2022-10-31T16:24:24;17.60;99.90
19654;DHT22;9975;48.046;7.804;2022-10-31T16:26:54;17.70;99.90
19654;DHT22;9975;48.046;7.804;2022-10-31T16:29:32;17.50;99.90
19654;DHT22;9975;48.046;7.804;2022-10-31T16:31:58;17.50;99.90
19654;DHT22;9975;48.046;7.804;2022-10-31T16:34:25;17.40;99.90
19654;DHT22;9975;48.046;7.804;2022-10-31T16:36:50;17.10;99.90
19654;DHT22;9975;48.046;7.804;2022-10-31T16:39:16;16.60;99.90
19654;DHT22;9975;48.046;7.804;2022-10-31T16:41:45;16.60;99.90
19654;DHT22;9975;48.046;7.804;2022-10-31T16:44:25;16.30;99.90
19654;DHT22;9975;48.046;7.804;2022-10-31T16:47:08;16.30;99.90
19654;DHT22;9975;48.046;7.804;2022-10-31T16:49:34;16.20;99.90
19654;DHT22;9975;48.046;7.804;2022-10-31T16:52:00;16.20;99.90
19654;DHT22;9975;48.046;7.804;2022-10-31T16:54:25;16.20;99.90
19654;DHT22;9975;48.046;7.804;2022-10-31T16:56:54;16.10;99.90
19654;DHT22;9975;48.046;7.804;2022-10-31T16:59:19;16.10;99.90
19654;DHT22;9975;48.046;7.804;2022-10-31T17:01:48;16.10;99.90
19654;DHT22;9975;48.046;7.804;2022-10-31T17:04:14;16.00;99.90
19654;DHT22;9975;48.046;7.804;2022-10-31T17:06:41;15.90;99.90
19654;DHT22;9975;48.046;7.804;2022-10-31T17:09:07;15.70;99.90
19654;DHT22;9975;48.046;7.804;2022-10-31T17:11:33;15.50;99.90
19654;DHT22;9975;48.046;7.804;2022-10-31T17:13:59;15.40;99.90
19654;DHT22;9975;48.046;7.804;2022-10-31T17:16:25;15.40;99.90
19654;DHT22;9975;48.046;7.804;2022-10-31T17:18:51;15.30;99.90
19654;DHT22;9975;48.046;7.804;2022-10-31T17:21:23;15.30;99.90
19654;DHT22;9975;48.046;7.804;2022-10-31T17:23:51;15.10;99.90
19654;DHT22;9975;48.046;7.804;2022-10-31T17:26:17;15.00;99.90
19654;DHT22;9975;48.046;7.804;2022-10-31T17:28:42;14.90;99.90
19654;DHT22;9975;48.046;7.804;2022-10-31T17:31:23;14.90;99.90
19654;DHT22;9975;48.046;7.804;2022-10-31T17:33:50;14.80;99.90
19654;DHT22;9975;48.046;7.804;2022-10-31T17:36:18;14.60;99.90
19654;DHT22;9975;48.046;7.804;2022-10-31T17:38:44;14.60;99.90
19654;DHT22;9975;48.046;7.804;2022-10-31T17:41:09;14.70;99.90
19654;DHT22;9975;48.046;7.804;2022-10-31T17:43:35;14.50;99.90
19654;DHT22;9975;48.046;7.804;2022-10-31T17:46:01;14.40;99.90
19654;DHT22;9975;48.046;7.804;2022-10-31T17:48:27;17.20;99.90
19654;DHT22;9975;48.046;7.804;2022-10-31T17:50:53;14.30;99.90
19654;DHT22;9975;48.046;7.804;2022-10-31T17:53:19;14.20;99.90
19654;DHT22;9975;48.046;7.804;2022-10-31T17:55:44;14.30;99.90
19654;DHT22;9975;48.046;7.804;2022-10-31T18:00:39;14.10;99.90
19654;DHT22;9975;48.046;7.804;2022-10-31T18:03:08;14.00;99.90
19654;DHT22;9975;48.046;7.804;2022-10-31T18:05:33;14.00;99.90
19654;DHT22;9975;48.046;7.804;2022-10-31T18:07:59;14.00;99.90
19654;DHT22;9975;48.046;7.804;2022-10-31T18:10:25;13.70;99.90
19654;DHT22;9975;48.046;7.804;2022-10-31T18:15:17;13.80;99.90
19654;DHT22;9975;48.046;7.804;2022-10-31T18:17:44;13.80;99.90
19654;DHT22;9975;48.046;7.804;2022-10-31T18:20:11;13.80;99.90
19654;DHT22;9975;48.046;7.804;2022-10-31T18:22:36;13.80;99.90
19654;DHT22;9975;48.046;7.804;2022-10-31T18:25:03;13.70;99.90
19654;DHT22;9975;48.046;7.804;2022-10-31T18:27:29;13.70;99.90
19654;DHT22;9975;48.046;7.804;2022-10-31T18:29:54;13.60;99.90
19654;DHT22;9975;48.046;7.804;2022-10-31T18:32:20;13.60;99.90
19654;DHT22;9975;48.046;7.804;2022-10-31T18:34:46;13.60;99.90
19654;DHT22;9975;48.046;7.804;2022-10-31T18:37:11;13.70;99.90
19654;DHT22;9975;48.046;7.804;2022-10-31T18:39:37;13.60;99.90
19654;DHT22;9975;48.046;7.804;2022-10-31T18:42:03;13.50;99.90
19654;DHT22;9975;48.046;7.804;2022-10-31T18:44:28;13.40;99.90
19654;DHT22;9975;48.046;7.804;2022-10-31T18:46:54;13.40;99.90
19654;DHT22;9975;48.046;7.804;2022-10-31T18:49:20;13.30;99.90
19654;DHT22;9975;48.046;7.804;2022-10-31T18:51:50;13.10;99.90
19654;DHT22;9975;48.046;7.804;2022-10-31T18:54:16;13.10;99.90
19654;DHT22;9975;48.046;7.804;2022-10-31T18:56:42;13.00;99.90
19654;DHT22;9975;48.046;7.804;2022-10-31T18:59:08;13.00;99.90
19654;DHT22;9975;48.046;7.804;2022-10-31T19:01:34;13.00;99.90
19654;DHT22;9975;48.046;7.804;2022-10-31T19:03:59;13.00;99.90
19654;DHT22;9975;48.046;7.804;2022-10-31T19:06:26;13.00;99.90
19654;DHT22;9975;48.046;7.804;2022-10-31T19:09:04;13.00;99.90
19654;DHT22;9975;48.046;7.804;2022-10-31T19:11:32;12.90;99.90
19654;DHT22;9975;48.046;7.804;2022-10-31T19:13:58;12.80;99.90
19654;DHT22;9975;48.046;7.804;2022-10-31T19:16:23;12.80;99.90
19654;DHT22;9975;48.046;7.804;2022-10-31T19:18:55;12.70;99.90
19654;DHT22;9975;48.046;7.804;2022-10-31T19:21:22;12.70;99.90
19654;DHT22;9975;48.046;7.804;2022-10-31T19:23:48;12.70;99.90
19654;DHT22;9975;48.046;7.804;2022-10-31T19:26:15;12.70;99.90
19654;DHT22;9975;48.046;7.804;2022-10-31T19:28:41;12.70;99.90
19654;DHT22;9975;48.046;7.804;2022-10-31T19:31:07;12.70;99.90
19654;DHT22;9975;48.046;7.804;2022-10-31T19:33:34;12.60;99.90
19654;DHT22;9975;48.046;7.804;2022-10-31T19:36:09;12.60;99.90
19654;DHT22;9975;48.046;7.804;2022-10-31T19:38:37;12.60;99.90
19654;DHT22;9975;48.046;7.804;2022-10-31T19:41:12;12.60;99.90
19654;DHT22;9975;48.046;7.804;2022-10-31T19:43:38;12.60;99.90
19654;DHT22;9975;48.046;7.804;2022-10-31T19:46:04;12.50;99.90
19654;DHT22;9975;48.046;7.804;2022-10-31T19:48:31;12.50;99.90
19654;DHT22;9975;48.046;7.804;2022-10-31T19:51:01;12.50;99.90
19654;DHT22;9975;48.046;7.804;2022-10-31T19:53:29;12.50;99.90
19654;DHT22;9975;48.046;7.804;2022-10-31T19:55:55;12.60;99.90
19654;DHT22;9975;48.046;7.804;2022-10-31T19:58:21;12.50;99.90
19654;DHT22;9975;48.046;7.804;2022-10-31T20:00:46;12.40;99.90
19654;DHT22;9975;48.046;7.804;2022-10-31T20:03:12;12.30;99.90
19654;DHT22;9975;48.046;7.804;2022-10-31T20:05:41;12.30;99.90
19654;DHT22;9975;48.046;7.804;2022-10-31T20:08:13;12.30;99.90
19654;DHT22;9975;48.046;7.804;2022-10-31T20:10:39;12.20;99.90
19654;DHT22;9975;48.046;7.804;2022-10-31T20:13:05;12.00;99.90
19654;DHT22;9975;48.046;7.804;2022-10-31T20:15:30;12.10;99.90
19654;DHT22;9975;48.046;7.804;2022-10-31T20:17:56;12.00;99.90
19654;DHT22;9975;48.046;7.804;2022-10-31T20:20:22;12.00;99.90